Time;durP1;ratioP1;P1;durP2;ratioP2;P2;SDS_P1;SDS_P2;PMS_P1;PMS_P2;Temp;Humidity;BMP_temperature;BMP_pressure;BME280_temperature;BME280_humidity;BME280_pressure;Samples;Min_cycle;Max_cycle;Signal;HPM_P1;HPM_P2
2021/08/25 00:00:53;;;;;;;16.00;12.25;;;;;;;;;;2103833;28;20496;-46
2021/08/25 00:01:54;;;;;;;18.95;13.52;;;;;;;;;;2106051;28;20086;-45
2021/08/25 00:02:55;;;;;;;21.42;14.65;;;;;;;;;;2103984;28;20432;-45
2021/08/25 00:03:57;;;;;;;17.60;13.60;;;;;;;;;;2104424;28;20040;-45
2021/08/25 00:04:58;;;;;;;18.40;14.10;;;;;;;;;;2106029;28;20048;-44
2021/08/25 00:05:59;;;;;;;20.40;14.38;;;;;;;;;;2103873;28;20079;-45
2021/08/25 00:07:00;;;;;;;21.97;14.37;;;;;;;;;;2103698;28;20047;-45
2021/08/25 00:08:02;;;;;;;21.98;14.95;;;;;;;;;;2106035;28;20040;-45
2021/08/25 00:09:04;;;;;;;;;;;;;;;;;;2104446;28;20128;-45
2021/08/25 00:10:06;;;;;;;19.42;14.90;;;;;;;;;;2104789;28;19998;-45
2021/08/25 00:11:07;;;;;;;21.13;15.48;;;;;;;;;;2105955;28;20123;-46
2021/08/25 00:12:09;;;;;;;23.10;15.10;;;;;;;;;;2103637;28;20207;-45
2021/08/25 00:13:10;;;;;;;23.00;15.60;;;;;;;;;;2104533;28;20044;-45
2021/08/25 00:14:11;;;;;;;19.70;14.38;;;;;;;;;;2105991;28;20349;-45
2021/08/25 00:15:12;;;;;;;22.37;15.43;;;;;;;;;;2102639;28;20044;-46
2021/08/25 00:16:13;;;;;;;24.10;16.23;;;;;;;;;;2105896;28;20131;-45
2021/08/25 00:17:14;;;;;;;20.97;15.80;;;;;;;;;;2105902;28;20497;-44
2021/08/25 00:18:15;;;;;;;23.48;16.92;;;;;;;;;;2102596;28;20052;-45
2021/08/25 00:19:16;;;;;;;28.67;18.47;;;;;;;;;;2097583;28;20147;-45
2021/08/25 00:20:17;;;;;;;26.52;19.02;;;;;;;;;;2097652;28;20055;-45
2021/08/25 00:21:18;;;;;;;31.73;19.93;;;;;;;;;;2101880;28;20425;-46
2021/08/25 00:22:19;;;;;;;29.10;19.75;;;;;;;;;;2105795;28;20071;-45
2021/08/25 00:23:20;;;;;;;30.07;21.27;;;;;;;;;;2106061;28;20097;-45
2021/08/25 00:24:21;;;;;;;;;;;;;;;;;;2103196;28;20040;-45
2021/08/25 00:25:22;;;;;;;30.50;19.65;;;;;;;;;;2106033;28;19920;-45
2021/08/25 00:26:23;;;;;;;25.58;17.73;;;;;;;;;;2105425;28;20193;-45
2021/08/25 00:27:24;;;;;;;33.77;21.13;;;;;;;;;;2102851;28;20044;-45
2021/08/25 00:28:25;;;;;;;39.15;22.38;;;;;;;;;;2105902;28;20510;-45
2021/08/25 00:29:26;;;;;;;35.23;23.87;;;;;;;;;;2105503;28;20048;-45
2021/08/25 00:30:27;;;;;;;32.15;23.60;;;;;;;;;;2102904;28;20040;-45
2021/08/25 00:31:28;;;;;;;34.77;23.20;;;;;;;;;;2106057;28;20566;-45
2021/08/25 00:32:29;;;;;;;32.45;23.45;;;;;;;;;;2104520;28;20078;-45
2021/08/25 00:33:30;;;;;;;36.53;23.00;;;;;;;;;;2103588;28;20047;-46
2021/08/25 00:34:31;;;;;;;30.70;22.08;;;;;;;;;;2105835;28;20050;-45
2021/08/25 00:35:32;;;;;;;30.50;20.63;;;;;;;;;;2103854;28;20047;-45
2021/08/25 00:36:33;;;;;;;31.48;22.27;;;;;;;;;;2104312;28;20040;-46
2021/08/25 00:37:34;;;;;;;32.30;22.50;;;;;;;;;;2105930;28;20054;-45
2021/08/25 00:38:35;;;;;;;31.55;22.05;;;;;;;;;;2103673;28;20500;-45
2021/08/25 00:39:37;;;;;;;29.58;20.75;;;;;;;;;;2104334;28;20453;-44
2021/08/25 00:40:37;;;;;;;32.75;22.05;;;;;;;;;;2105953;28;20126;-45
2021/08/25 00:41:39;;;;;;;36.17;21.73;;;;;;;;;;2103347;28;20036;-44
2021/08/25 00:42:40;;;;;;;32.05;21.00;;;;;;;;;;2104924;28;20376;-45
2021/08/25 00:43:41;;;;;;;30.98;20.73;;;;;;;;;;2108158;28;20109;-47
2021/08/25 00:44:42;;;;;;;30.80;20.57;;;;;;;;;;2106422;28;20044;-45
2021/08/25 00:45:43;;;;;;;30.30;20.35;;;;;;;;;;2107400;28;20040;-45
2021/08/25 00:46:45;;;;;;;32.90;19.90;;;;;;;;;;2108424;28;20467;-45
2021/08/25 00:47:46;;;;;;;27.00;20.13;;;;;;;;;;2106505;28;20100;-44
2021/08/25 00:48:47;;;;;;;33.53;20.92;;;;;;;;;;2107222;28;20047;-45
2021/08/25 00:49:48;;;;;;;27.05;20.00;;;;;;;;;;2108737;28;20052;-45
2021/08/25 00:50:49;;;;;;;30.45;20.15;;;;;;;;;;2103941;28;20404;-45
2021/08/25 00:51:51;;;;;;;29.02;20.17;;;;;;;;;;2108515;28;20044;-45
2021/08/25 00:52:51;;;;;;;30.85;20.65;;;;;;;;;;2107267;28;20051;-46
2021/08/25 00:53:54;;;;;;;29.73;21.38;;;;;;;;;;2105054;28;20048;-44
2021/08/25 00:54:58;;;;;;;28.85;19.77;;;;;;;;;;2108699;28;20046;-45
2021/08/25 00:55:59;;;;;;;;;;;;;;;;;;2108892;28;20048;-44
2021/08/25 00:57:00;;;;;;;32.35;20.90;;;;;;;;;;2102630;28;19920;-44
2021/08/25 00:58:01;;;;;;;27.15;20.05;;;;;;;;;;2100099;28;20044;-45
2021/08/25 00:59:04;;;;;;;28.42;20.33;;;;;;;;;;2100472;28;20057;-45
2021/08/25 01:00:05;;;;;;;27.02;19.63;;;;;;;;;;2105412;28;20110;-44
2021/08/25 01:01:08;;;;;;;25.92;20.20;;;;;;;;;;2108501;28;20048;-44
2021/08/25 01:02:13;;;;;;;27.15;17.92;;;;;;;;;;2107257;28;20044;-45
2021/08/25 01:03:17;;;;;;;28.45;19.90;;;;;;;;;;2106156;28;20044;-46
2021/08/25 01:04:20;;;;;;;25.58;18.88;;;;;;;;;;2108460;28;20535;-45
2021/08/25 01:05:22;;;;;;;26.75;19.38;;;;;;;;;;2106512;28;20131;-44
2021/08/25 01:06:24;;;;;;;29.38;20.88;;;;;;;;;;2107254;28;20052;-43
2021/08/25 01:07:27;;;;;;;27.65;19.75;;;;;;;;;;2108617;28;20060;-43
2021/08/25 01:08:28;;;;;;;23.20;17.30;;;;;;;;;;2104974;28;20131;-43
2021/08/25 01:09:30;;;;;;;32.17;19.35;;;;;;;;;;2107363;28;20130;-43
2021/08/25 01:10:31;;;;;;;30.73;20.60;;;;;;;;;;2108511;28;20413;-43
2021/08/25 01:11:32;;;;;;;;;;;;;;;;;;2105458;28;20036;-42
2021/08/25 01:12:33;;;;;;;31.40;19.00;;;;;;;;;;2108198;28;20339;-44
2021/08/25 01:13:35;;;;;;;30.88;19.83;;;;;;;;;;2108517;28;20044;-43
2021/08/25 01:14:36;;;;;;;24.40;18.60;;;;;;;;;;2105484;28;20040;-43
2021/08/25 01:15:38;;;;;;;32.47;18.48;;;;;;;;;;2108252;28;20044;-44
2021/08/25 01:16:39;;;;;;;23.85;18.70;;;;;;;;;;2108408;28;20059;-44
2021/08/25 01:17:40;;;;;;;29.02;20.27;;;;;;;;;;2103527;28;20074;-43
2021/08/25 01:18:42;;;;;;;25.07;19.03;;;;;;;;;;2108437;28;20485;-44
2021/08/25 01:19:46;;;;;;;28.42;20.35;;;;;;;;;;2108549;28;20409;-44
2021/08/25 01:20:48;;;;;;;40.33;20.90;;;;;;;;;;2104473;28;20119;-46
2021/08/25 01:21:49;;;;;;;29.83;19.55;;;;;;;;;;2108532;28;20082;-44
2021/08/25 01:22:50;;;;;;;27.00;18.90;;;;;;;;;;2107986;28;20059;-44
2021/08/25 01:23:52;;;;;;;23.23;17.50;;;;;;;;;;2105448;28;20079;-44
2021/08/25 01:24:54;;;;;;;26.35;19.63;;;;;;;;;;2108490;28;20135;-44
2021/08/25 01:25:54;;;;;;;;;;;;;;;;;;2107572;28;20131;-44
2021/08/25 01:26:56;;;;;;;27.08;18.58;;;;;;;;;;2105227;28;19973;-44
2021/08/25 01:27:58;;;;;;;34.88;19.23;;;;;;;;;;2108445;28;20130;-45
2021/08/25 01:29:01;;;;;;;25.65;18.65;;;;;;;;;;2106439;28;20046;-45
2021/08/25 01:30:03;;;;;;;22.45;16.65;;;;;;;;;;2106853;28;20489;-44
2021/08/25 01:31:04;;;;;;;24.52;18.40;;;;;;;;;;2108511;28;20050;-44
2021/08/25 01:32:05;;;;;;;;;;;;;;;;;;2106114;28;20071;-44
2021/08/25 01:33:06;;;;;;;22.92;17.25;;;;;;;;;;2107501;28;20361;-45
2021/08/25 01:34:08;;;;;;;28.60;19.92;;;;;;;;;;2108346;28;20048;-46
2021/08/25 01:35:09;;;;;;;23.05;18.15;;;;;;;;;;2105086;28;20087;-45
2021/08/25 01:36:14;;;;;;;26.33;18.25;;;;;;;;;;2108096;28;20051;-45
2021/08/25 01:37:15;;;;;;;21.60;16.48;;;;;;;;;;2108239;28;20469;-46
2021/08/25 01:38:20;;;;;;;25.73;18.10;;;;;;;;;;2103635;28;20048;-45
2021/08/25 01:39:21;;;;;;;22.77;17.50;;;;;;;;;;2108201;28;20048;-45
2021/08/25 01:40:22;;;;;;;24.15;17.58;;;;;;;;;;2108359;28;20058;-46
2021/08/25 01:41:24;;;;;;;23.60;18.10;;;;;;;;;;2104809;28;20067;-45
2021/08/25 01:42:25;;;;;;;24.65;17.75;;;;;;;;;;2108363;28;20216;-45
2021/08/25 01:43:26;;;;;;;23.47;18.33;;;;;;;;;;2108164;28;20050;-45
2021/08/25 01:44:27;;;;;;;21.65;17.20;;;;;;;;;;2104893;28;20131;-46
2021/08/25 01:45:29;;;;;;;30.50;18.33;;;;;;;;;;2108307;28;20055;-45
2021/08/25 01:46:31;;;;;;;25.30;17.88;;;;;;;;;;2107860;28;20123;-44
2021/08/25 01:47:33;;;;;;;22.88;17.95;;;;;;;;;;2105148;28;20105;-45
2021/08/25 01:48:33;;;;;;;24.38;17.50;;;;;;;;;;2108290;28;20501;-45
2021/08/25 01:49:34;;;;;;;27.97;17.63;;;;;;;;;;2107621;28;20048;-45
2021/08/25 01:50:35;;;;;;;24.50;17.73;;;;;;;;;;2105736;28;20119;-45
2021/08/25 01:51:37;;;;;;;21.10;16.10;;;;;;;;;;2108295;28;20100;-46
2021/08/25 01:52:38;;;;;;;21.17;17.17;;;;;;;;;;2105456;28;20127;-46
2021/08/25 01:53:39;;;;;;;21.27;17.03;;;;;;;;;;2106499;28;20070;-45
2021/08/25 01:54:40;;;;;;;22.35;18.25;;;;;;;;;;2107440;28;20051;-45
2021/08/25 01:55:41;;;;;;;26.85;17.75;;;;;;;;;;2104548;28;20044;-45
2021/08/25 01:56:42;;;;;;;23.48;18.35;;;;;;;;;;2105209;28;20051;-46
2021/08/25 01:57:44;;;;;;;26.63;18.48;;;;;;;;;;2106830;28;20135;-45
2021/08/25 01:58:45;;;;;;;24.98;18.20;;;;;;;;;;2104584;28;20556;-45
2021/08/25 01:59:45;;;;;;;23.15;17.75;;;;;;;;;;2105853;28;20050;-46
2021/08/25 02:00:47;;;;;;;25.70;17.70;;;;;;;;;;2106876;28;20425;-46
2021/08/25 02:01:48;;;;;;;25.80;17.90;;;;;;;;;;2104781;28;20448;-46
2021/08/25 02:02:50;;;;;;;26.25;18.63;;;;;;;;;;2105565;28;20044;-45
2021/08/25 02:03:51;;;;;;;24.50;18.08;;;;;;;;;;2106869;28;20047;-44
2021/08/25 02:04:52;;;;;;;25.70;18.67;;;;;;;;;;2104421;28;20059;-44
2021/08/25 02:05:53;;;;;;;27.50;18.92;;;;;;;;;;2105713;28;20051;-46
2021/08/25 02:06:54;;;;;;;27.47;20.10;;;;;;;;;;2106940;28;20044;-46
2021/08/25 02:07:55;;;;;;;25.13;18.83;;;;;;;;;;2104233;28;20143;-45
2021/08/25 02:08:56;;;;;;;23.40;19.50;;;;;;;;;;2106069;28;20148;-46
2021/08/25 02:09:57;;;;;;;28.25;19.50;;;;;;;;;;2106816;28;20104;-45
2021/08/25 02:10:58;;;;;;;28.47;19.27;;;;;;;;;;2103725;28;20113;-46
2021/08/25 02:11:59;;;;;;;26.30;19.15;;;;;;;;;;2106557;28;20135;-45
2021/08/25 02:13:00;;;;;;;25.47;18.70;;;;;;;;;;2106817;28;20509;-45
2021/08/25 02:14:01;;;;;;;26.92;19.27;;;;;;;;;;2103163;28;20044;-45
2021/08/25 02:15:02;;;;;;;26.10;18.57;;;;;;;;;;2106228;28;20382;-46
2021/08/25 02:16:04;;;;;;;26.08;19.88;;;;;;;;;;2106423;28;20132;-46
2021/08/25 02:17:06;;;;;;;24.45;18.83;;;;;;;;;;2101971;28;20127;-46
2021/08/25 02:18:07;;;;;;;24.27;17.85;;;;;;;;;;2098455;28;20117;-45
2021/08/25 02:19:08;;;;;;;24.17;18.10;;;;;;;;;;2098501;28;20178;-45
2021/08/25 02:20:09;;;;;;;24.10;18.80;;;;;;;;;;2103381;28;20051;-46
2021/08/25 02:21:10;;;;;;;23.83;18.58;;;;;;;;;;2106716;28;20132;-45
2021/08/25 02:22:11;;;;;;;24.13;18.40;;;;;;;;;;2106323;28;20044;-45
2021/08/25 02:23:13;;;;;;;23.70;18.27;;;;;;;;;;2102792;28;20091;-45
2021/08/25 02:24:13;;;;;;;23.23;18.50;;;;;;;;;;2106862;28;20159;-45
2021/08/25 02:25:15;;;;;;;23.33;18.43;;;;;;;;;;2105342;28;20454;-46
2021/08/25 02:26:16;;;;;;;23.95;17.45;;;;;;;;;;2104606;28;20515;-46
2021/08/25 02:27:17;;;;;;;22.48;18.73;;;;;;;;;;2106592;28;20563;-46
2021/08/25 02:28:18;;;;;;;27.45;18.52;;;;;;;;;;2104563;28;20048;-45
2021/08/25 02:29:19;;;;;;;23.37;18.73;;;;;;;;;;2104156;28;20048;-45
2021/08/25 02:30:20;;;;;;;24.42;18.27;;;;;;;;;;2106700;28;20324;-44
2021/08/25 02:31:22;;;;;;;27.13;19.03;;;;;;;;;;2104770;28;20052;-45
2021/08/25 02:32:23;;;;;;;25.63;18.50;;;;;;;;;;2105264;28;20076;-45
2021/08/25 02:33:24;;;;;;;25.08;19.02;;;;;;;;;;2106720;28;20048;-45
2021/08/25 02:34:25;;;;;;;24.60;18.17;;;;;;;;;;2103716;28;20502;-45
2021/08/25 02:35:26;;;;;;;26.23;17.90;;;;;;;;;;2105000;28;20054;-45
2021/08/25 02:36:27;;;;;;;22.75;16.92;;;;;;;;;;2106527;28;20131;-45
2021/08/25 02:37:28;;;;;;;22.00;16.67;;;;;;;;;;2103318;28;20113;-45
2021/08/25 02:38:29;;;;;;;22.02;16.70;;;;;;;;;;2106354;28;20580;-45
2021/08/25 02:39:30;;;;;;;19.83;15.27;;;;;;;;;;2106287;28;20044;-45
2021/08/25 02:40:31;;;;;;;23.40;15.52;;;;;;;;;;2102424;28;20044;-44
2021/08/25 02:41:32;;;;;;;23.20;16.20;;;;;;;;;;2105234;28;20135;-45
2021/08/25 02:42:33;;;;;;;22.90;17.48;;;;;;;;;;2106717;28;20062;-46
2021/08/25 02:43:35;;;;;;;19.60;16.08;;;;;;;;;;2103640;28;20139;-45
2021/08/25 02:44:36;;;;;;;22.50;16.48;;;;;;;;;;2098244;28;20050;-45
2021/08/25 02:45:37;;;;;;;22.60;15.70;;;;;;;;;;2098284;28;20047;-45
2021/08/25 02:46:38;;;;;;;23.95;17.13;;;;;;;;;;2102043;28;20049;-45
2021/08/25 02:47:40;;;;;;;25.75;17.58;;;;;;;;;;2106604;28;20048;-45
2021/08/25 02:48:40;;;;;;;19.55;16.52;;;;;;;;;;2106478;28;20495;-45
2021/08/25 02:49:42;;;;;;;23.27;15.13;;;;;;;;;;2103195;28;20040;-46
2021/08/25 02:50:42;;;;;;;19.08;15.30;;;;;;;;;;2106504;28;20062;-45
2021/08/25 02:51:43;;;;;;;21.20;15.53;;;;;;;;;;2105997;28;20051;-45
2021/08/25 02:52:44;;;;;;;20.25;14.73;;;;;;;;;;2101902;28;20135;-46
2021/08/25 02:53:45;;;;;;;18.83;14.07;;;;;;;;;;2106588;28;20055;-46
2021/08/25 02:54:46;;;;;;;20.65;15.20;;;;;;;;;;2106087;28;20135;-46
2021/08/25 02:55:47;;;;;;;20.67;15.77;;;;;;;;;;2103565;28;20400;-45
2021/08/25 02:56:48;;;;;;;18.35;14.15;;;;;;;;;;2106316;28;20564;-45
2021/08/25 02:57:49;;;;;;;18.73;14.47;;;;;;;;;;2105664;28;20135;-45
2021/08/25 02:58:50;;;;;;;20.15;15.02;;;;;;;;;;2104072;28;20044;-45
2021/08/25 02:59:51;;;;;;;20.13;15.27;;;;;;;;;;2106467;28;20579;-45
2021/08/25 03:00:54;;;;;;;18.08;14.73;;;;;;;;;;2105956;28;20056;-45
2021/08/25 03:01:56;;;;;;;20.42;14.93;;;;;;;;;;2104894;28;20044;-45
2021/08/25 03:02:57;;;;;;;;;;;;;;;;;;2106858;28;20512;-46
2021/08/25 03:03:58;;;;;;;21.95;15.93;;;;;;;;;;2104206;28;19955;-45
2021/08/25 03:04:59;;;;;;;20.88;15.10;;;;;;;;;;2100101;28;20058;-45
2021/08/25 03:06:00;;;;;;;19.50;15.20;;;;;;;;;;2098035;28;20055;-45
2021/08/25 03:07:01;;;;;;;21.30;16.38;;;;;;;;;;2098258;28;20382;-45
2021/08/25 03:08:02;;;;;;;20.60;16.10;;;;;;;;;;2105443;28;20050;-45
2021/08/25 03:09:03;;;;;;;21.35;16.02;;;;;;;;;;2106400;28;20479;-45
2021/08/25 03:10:05;;;;;;;20.77;15.43;;;;;;;;;;2103049;28;20044;-45
2021/08/25 03:11:08;;;;;;;18.48;14.18;;;;;;;;;;2105470;28;20044;-44
2021/08/25 03:12:09;;;;;;;18.45;14.20;;;;;;;;;;2106390;28;20519;-46
2021/08/25 03:13:10;;;;;;;17.75;14.30;;;;;;;;;;2102828;28;20450;-47
2021/08/25 03:14:11;;;;;;;18.75;14.63;;;;;;;;;;2105409;28;20120;-45
2021/08/25 03:15:12;;;;;;;19.80;14.85;;;;;;;;;;2106175;28;20400;-45
2021/08/25 03:16:13;;;;;;;17.63;13.97;;;;;;;;;;2101768;28;20052;-45
2021/08/25 03:17:15;;;;;;;18.77;14.60;;;;;;;;;;2106184;28;20044;-44
2021/08/25 03:18:16;;;;;;;;;;;;;;;;;;2106959;28;20127;-44
2021/08/25 03:19:17;;;;;;;21.08;15.45;;;;;;;;;;2102661;28;19963;-44
2021/08/25 03:20:18;;;;;;;18.33;15.07;;;;;;;;;;2106534;28;20044;-45
2021/08/25 03:21:18;;;;;;;22.55;13.65;;;;;;;;;;2106331;28;20532;-45
2021/08/25 03:22:20;;;;;;;17.60;13.40;;;;;;;;;;2102709;28;20078;-45
2021/08/25 03:23:21;;;;;;;20.15;14.30;;;;;;;;;;2106441;28;20173;-44
2021/08/25 03:24:22;;;;;;;20.67;13.63;;;;;;;;;;2105823;28;20544;-44
2021/08/25 03:25:23;;;;;;;18.02;13.18;;;;;;;;;;2103285;28;20591;-44
2021/08/25 03:26:24;;;;;;;18.67;14.43;;;;;;;;;;2106286;28;20044;-45
2021/08/25 03:27:27;;;;;;;18.92;14.23;;;;;;;;;;2105779;28;20051;-44
2021/08/25 03:28:28;;;;;;;16.77;14.60;;;;;;;;;;2103384;28;20056;-44
2021/08/25 03:29:29;;;;;;;20.70;15.15;;;;;;;;;;2106204;28;20067;-45
2021/08/25 03:30:30;;;;;;;17.50;13.73;;;;;;;;;;2105268;28;20048;-45
2021/08/25 03:31:31;;;;;;;20.40;15.07;;;;;;;;;;2104109;28;20040;-46
2021/08/25 03:32:33;;;;;;;18.83;13.97;;;;;;;;;;2106371;28;20306;-45
2021/08/25 03:33:34;;;;;;;15.68;13.43;;;;;;;;;;2105296;28;24447;-45
2021/08/25 03:34:35;;;;;;;20.43;14.37;;;;;;;;;;2104758;28;20478;-44
2021/08/25 03:35:36;;;;;;;20.33;14.80;;;;;;;;;;2105969;28;20046;-44
2021/08/25 03:36:37;;;;;;;19.93;14.83;;;;;;;;;;2104293;28;20039;-45
2021/08/25 03:37:38;;;;;;;21.00;15.85;;;;;;;;;;2104560;28;20044;-45
2021/08/25 03:38:39;;;;;;;22.23;14.88;;;;;;;;;;2106326;28;20054;-45
2021/08/25 03:39:40;;;;;;;19.98;14.73;;;;;;;;;;2103577;28;20163;-45
2021/08/25 03:40:41;;;;;;;18.77;14.40;;;;;;;;;;2105643;28;20050;-44
2021/08/25 03:41:42;;;;;;;17.23;14.17;;;;;;;;;;2106187;28;20063;-44
2021/08/25 03:42:43;;;;;;;20.85;14.90;;;;;;;;;;2102948;28;20254;-45
2021/08/25 03:43:44;;;;;;;21.60;15.07;;;;;;;;;;2105985;28;20173;-44
2021/08/25 03:44:45;;;;;;;20.05;15.15;;;;;;;;;;2106217;28;20092;-44
2021/08/25 03:45:46;;;;;;;18.47;14.40;;;;;;;;;;2101621;28;20451;-44
2021/08/25 03:46:47;;;;;;;18.17;14.70;;;;;;;;;;2105430;28;20476;-44
2021/08/25 03:47:49;;;;;;;18.67;13.68;;;;;;;;;;2105803;28;20498;-44
2021/08/25 03:48:50;;;;;;;;;;;;;;;;;;2103813;28;20769;-45
2021/08/25 03:49:51;;;;;;;19.30;15.48;;;;;;;;;;2105977;28;19920;-45
2021/08/25 03:50:52;;;;;;;20.70;16.83;;;;;;;;;;2105906;28;20477;-45
2021/08/25 03:51:53;;;;;;;20.60;16.20;;;;;;;;;;2102385;28;20045;-44
2021/08/25 03:52:54;;;;;;;23.38;17.13;;;;;;;;;;2101711;28;20051;-45
2021/08/25 03:53:55;;;;;;;20.25;15.43;;;;;;;;;;2100921;28;20036;-44
2021/08/25 03:54:56;;;;;;;16.88;14.05;;;;;;;;;;2100733;28;20119;-45
2021/08/25 03:55:57;;;;;;;19.42;13.98;;;;;;;;;;2103114;28;20037;-45
2021/08/25 03:56:58;;;;;;;19.02;14.77;;;;;;;;;;2100151;28;20048;-44
2021/08/25 03:57:59;;;;;;;18.60;14.17;;;;;;;;;;2101581;28;20048;-45
2021/08/25 03:59:00;;;;;;;17.10;14.43;;;;;;;;;;2103230;28;20062;-44
2021/08/25 04:00:01;;;;;;;18.15;14.45;;;;;;;;;;2105347;28;20076;-45
2021/08/25 04:01:02;;;;;;;20.88;16.23;;;;;;;;;;2102587;28;20406;-44
2021/08/25 04:02:03;;;;;;;20.67;15.88;;;;;;;;;;2106044;28;20440;-44
2021/08/25 04:03:05;;;;;;;18.25;14.73;;;;;;;;;;2105276;28;20559;-44
2021/08/25 04:04:07;;;;;;;22.15;16.70;;;;;;;;;;2103581;28;20145;-45
2021/08/25 04:05:08;;;;;;;21.23;15.25;;;;;;;;;;2105984;28;20473;-45
2021/08/25 04:06:09;;;;;;;20.45;14.43;;;;;;;;;;2104392;28;20070;-45
2021/08/25 04:07:10;;;;;;;20.08;14.68;;;;;;;;;;2104127;28;20492;-45
2021/08/25 04:08:11;;;;;;;19.15;15.05;;;;;;;;;;2105974;28;20051;-45
2021/08/25 04:09:12;;;;;;;19.02;15.35;;;;;;;;;;2104072;28;20070;-46
2021/08/25 04:10:13;;;;;;;23.07;17.20;;;;;;;;;;2104532;28;20135;-45
2021/08/25 04:11:17;;;;;;;22.58;16.52;;;;;;;;;;2106129;28;20143;-45
2021/08/25 04:12:19;;;;;;;18.30;15.48;;;;;;;;;;2103832;28;20059;-47
2021/08/25 04:13:19;;;;;;;18.27;14.98;;;;;;;;;;2104713;28;20166;-48
2021/08/25 04:14:20;;;;;;;22.03;17.03;;;;;;;;;;2106087;28;20472;-45
2021/08/25 04:15:21;;;;;;;23.50;16.48;;;;;;;;;;2103739;28;20060;-46
2021/08/25 04:16:23;;;;;;;21.43;16.07;;;;;;;;;;2104525;28;20048;-46
2021/08/25 04:17:24;;;;;;;20.02;15.57;;;;;;;;;;2105923;28;20453;-46
2021/08/25 04:18:25;;;;;;;19.60;16.43;;;;;;;;;;2102559;28;20036;-45
2021/08/25 04:19:26;;;;;;;;;;;;;;;;;;2105125;28;20495;-46
2021/08/25 04:20:27;;;;;;;19.35;15.30;;;;;;;;;;2105740;28;19919;-45
2021/08/25 04:21:28;;;;;;;20.58;16.65;;;;;;;;;;2101223;28;20056;-45
2021/08/25 04:22:29;;;;;;;26.37;17.93;;;;;;;;;;2105621;28;20052;-45
2021/08/25 04:23:30;;;;;;;21.20;17.17;;;;;;;;;;2105670;28;20086;-46
2021/08/25 04:24:32;;;;;;;18.60;15.10;;;;;;;;;;2101902;28;20051;-45
2021/08/25 04:25:33;;;;;;;21.83;16.85;;;;;;;;;;2105618;28;20891;-44
2021/08/25 04:26:34;;;;;;;15.50;13.30;;;;;;;;;;2105899;28;20093;-44
2021/08/25 04:27:35;;;;;;;20.30;14.38;;;;;;;;;;2102248;28;20492;-46
2021/08/25 04:28:36;;;;;;;22.03;15.27;;;;;;;;;;2106210;28;20086;-46
2021/08/25 04:29:37;;;;;;;22.10;13.63;;;;;;;;;;2099643;28;20323;-46
2021/08/25 04:30:38;;;;;;;20.87;12.43;;;;;;;;;;2102817;28;20036;-45
2021/08/25 04:31:39;;;;;;;18.83;11.70;;;;;;;;;;2105511;28;20044;-46
2021/08/25 04:32:40;;;;;;;19.57;15.50;;;;;;;;;;2105126;28;20048;-46
2021/08/25 04:33:41;;;;;;;22.80;17.02;;;;;;;;;;2102721;28;20501;-46
2021/08/25 04:34:42;;;;;;;22.77;16.95;;;;;;;;;;2105720;28;20050;-44
2021/08/25 04:35:43;;;;;;;21.65;17.15;;;;;;;;;;2105123;28;20071;-45
2021/08/25 04:36:44;;;;;;;22.63;17.47;;;;;;;;;;2103013;28;20683;-44
2021/08/25 04:37:45;;;;;;;23.20;18.00;;;;;;;;;;2105915;28;20052;-47
2021/08/25 04:38:46;;;;;;;21.83;17.73;;;;;;;;;;2104349;28;20097;-44
2021/08/25 04:39:47;;;;;;;21.98;17.98;;;;;;;;;;2103398;28;20048;-45
2021/08/25 04:40:48;;;;;;;22.00;17.77;;;;;;;;;;2104924;28;20111;-44
2021/08/25 04:41:49;;;;;;;24.60;18.80;;;;;;;;;;2105067;28;20106;-44
2021/08/25 04:42:50;;;;;;;21.10;16.77;;;;;;;;;;2102646;28;20462;-42
2021/08/25 04:43:51;;;;;;;21.85;16.67;;;;;;;;;;2102006;28;20049;-46
2021/08/25 04:44:52;;;;;;;24.20;15.83;;;;;;;;;;2102590;28;20044;-45
2021/08/25 04:45:54;;;;;;;19.38;15.65;;;;;;;;;;2103359;28;20048;-46
2021/08/25 04:46:55;;;;;;;18.13;15.23;;;;;;;;;;2105716;28;20048;-46
2021/08/25 04:47:56;;;;;;;22.50;17.35;;;;;;;;;;2103485;28;20047;-46
2021/08/25 04:48:57;;;;;;;21.67;17.00;;;;;;;;;;2102735;28;20048;-45
2021/08/25 04:49:59;;;;;;;21.10;17.10;;;;;;;;;;2101490;28;20132;-45
2021/08/25 04:51:00;;;;;;;21.55;17.08;;;;;;;;;;2100285;28;20044;-48
2021/08/25 04:52:01;;;;;;;22.30;17.90;;;;;;;;;;2105046;28;20408;-46
2021/08/25 04:53:07;;;;;;;22.67;17.17;;;;;;;;;;2104183;28;20044;-46
2021/08/25 04:54:08;;;;;;;20.88;16.38;;;;;;;;;;2102078;28;20040;-44
2021/08/25 04:55:09;;;;;;;22.08;17.35;;;;;;;;;;2104218;28;20082;-45
2021/08/25 04:56:10;;;;;;;23.23;17.60;;;;;;;;;;2104253;28;20354;-45
2021/08/25 04:57:11;;;;;;;22.02;16.98;;;;;;;;;;2100762;28;20055;-46
2021/08/25 04:58:12;;;;;;;21.60;17.00;;;;;;;;;;2104986;28;20048;-45
2021/08/25 04:59:13;;;;;;;25.95;18.15;;;;;;;;;;2105368;28;20088;-45
2021/08/25 05:00:14;;;;;;;25.37;19.13;;;;;;;;;;2102068;28;20405;-46
2021/08/25 05:01:15;;;;;;;23.85;18.33;;;;;;;;;;2105710;28;20276;-45
2021/08/25 05:02:17;;;;;;;25.40;18.02;;;;;;;;;;2105163;28;20040;-45
2021/08/25 05:03:18;;;;;;;25.30;19.40;;;;;;;;;;2102633;28;20049;-47
2021/08/25 05:04:20;;;;;;;24.98;18.88;;;;;;;;;;2105702;28;20109;-45
2021/08/25 05:05:21;;;;;;;28.33;20.38;;;;;;;;;;2105331;28;20052;-45
2021/08/25 05:06:22;;;;;;;26.73;20.97;;;;;;;;;;2102774;28;20058;-45
2021/08/25 05:07:23;;;;;;;24.95;19.58;;;;;;;;;;2105538;28;20508;-46
2021/08/25 05:08:24;;;;;;;24.03;18.43;;;;;;;;;;2104636;28;20052;-47
2021/08/25 05:09:25;;;;;;;25.15;18.45;;;;;;;;;;2103578;28;20048;-46
2021/08/25 05:10:26;;;;;;;25.43;19.20;;;;;;;;;;2105672;28;20044;-46
2021/08/25 05:11:27;;;;;;;26.42;19.50;;;;;;;;;;2103497;28;20483;-46
2021/08/25 05:12:28;;;;;;;25.50;18.47;;;;;;;;;;2104026;28;20044;-45
2021/08/25 05:13:29;;;;;;;25.38;17.60;;;;;;;;;;2105640;28;20489;-45
2021/08/25 05:14:30;;;;;;;26.63;19.15;;;;;;;;;;2103669;28;20048;-45
2021/08/25 05:15:31;;;;;;;32.50;20.30;;;;;;;;;;2104302;28;20126;-46
2021/08/25 05:16:32;;;;;;;24.58;18.65;;;;;;;;;;2105602;28;20089;-45
2021/08/25 05:17:33;;;;;;;23.77;18.73;;;;;;;;;;2103131;28;20051;-47
2021/08/25 05:18:34;;;;;;;28.48;19.83;;;;;;;;;;2104854;28;20056;-45
2021/08/25 05:19:36;;;;;;;24.20;20.03;;;;;;;;;;2105782;28;20501;-45
2021/08/25 05:20:37;;;;;;;25.23;19.55;;;;;;;;;;2102344;28;20401;-45
2021/08/25 05:21:38;;;;;;;24.67;17.80;;;;;;;;;;2105342;28;20522;-45
2021/08/25 05:22:39;;;;;;;26.77;18.97;;;;;;;;;;2105716;28;20052;-45
2021/08/25 05:23:40;;;;;;;23.23;19.02;;;;;;;;;;2102295;28;20087;-45
2021/08/25 05:24:41;;;;;;;25.10;19.55;;;;;;;;;;2105381;28;20048;-45
2021/08/25 05:25:42;;;;;;;24.47;18.50;;;;;;;;;;2105716;28;20052;-46
2021/08/25 05:26:43;;;;;;;25.55;19.63;;;;;;;;;;2102360;28;20047;-43
2021/08/25 05:27:44;;;;;;;27.67;19.50;;;;;;;;;;2105060;28;20493;-43
2021/08/25 05:28:45;;;;;;;26.90;20.80;;;;;;;;;;2105617;28;20054;-43
2021/08/25 05:29:46;;;;;;;25.67;20.05;;;;;;;;;;2102291;28;20135;-44
2021/08/25 05:30:47;;;;;;;28.80;20.87;;;;;;;;;;2098584;28;20405;-44
2021/08/25 05:31:48;;;;;;;28.95;20.35;;;;;;;;;;2098725;28;20405;-44
2021/08/25 05:32:52;;;;;;;25.47;19.80;;;;;;;;;;2102739;28;20147;-44
2021/08/25 05:33:55;;;;;;;27.48;20.77;;;;;;;;;;2107134;28;20044;-43
2021/08/25 05:34:57;;;;;;;30.27;23.38;;;;;;;;;;2106742;28;20106;-44
2021/08/25 05:35:58;;;;;;;29.23;22.75;;;;;;;;;;2103932;28;20481;-43
2021/08/25 05:36:59;;;;;;;24.77;20.55;;;;;;;;;;2106981;28;20100;-44
2021/08/25 05:38:00;;;;;;;27.73;22.25;;;;;;;;;;2106575;28;20127;-43
2021/08/25 05:39:01;;;;;;;32.47;22.13;;;;;;;;;;2103088;28;20052;-44
2021/08/25 05:40:03;;;;;;;28.25;20.70;;;;;;;;;;2107085;28;20119;-44
2021/08/25 05:41:04;;;;;;;29.77;22.45;;;;;;;;;;2106307;28;20096;-43
2021/08/25 05:42:05;;;;;;;31.83;22.13;;;;;;;;;;2105393;28;20557;-44
2021/08/25 05:43:06;;;;;;;26.07;19.90;;;;;;;;;;2107100;28;20101;-43
2021/08/25 05:44:07;;;;;;;26.75;20.00;;;;;;;;;;2105088;28;20365;-44
2021/08/25 05:45:09;;;;;;;28.60;21.07;;;;;;;;;;2105539;28;20489;-45
2021/08/25 05:46:09;;;;;;;;;;;;;;;;;;2107431;28;20048;-44
2021/08/25 05:47:10;;;;;;;28.48;22.02;;;;;;;;;;2104845;28;20415;-44
2021/08/25 05:48:11;;;;;;;31.38;21.20;;;;;;;;;;2104463;28;20050;-44
2021/08/25 05:49:12;;;;;;;27.92;20.60;;;;;;;;;;2106952;28;20513;-44
2021/08/25 05:50:14;;;;;;;27.70;20.80;;;;;;;;;;2104175;28;20056;-44
2021/08/25 05:51:15;;;;;;;33.58;21.02;;;;;;;;;;2106398;28;20494;-44
2021/08/25 05:52:16;;;;;;;29.10;20.80;;;;;;;;;;2105274;28;20044;-45
2021/08/25 05:53:17;;;;;;;27.70;21.30;;;;;;;;;;2104738;28;20123;-44
2021/08/25 05:54:18;;;;;;;26.20;19.60;;;;;;;;;;2105547;28;20083;-44
2021/08/25 05:55:19;;;;;;;30.27;21.60;;;;;;;;;;2107106;28;20181;-44
2021/08/25 05:56:20;;;;;;;32.45;22.30;;;;;;;;;;2102557;28;20052;-44
2021/08/25 05:57:21;;;;;;;26.42;20.70;;;;;;;;;;2105584;28;20127;-44
2021/08/25 05:58:22;;;;;;;25.83;20.47;;;;;;;;;;2106992;28;20512;-44